Time;durP1;ratioP1;P1;durP2;ratioP2;P2;SDS_P1;SDS_P2;PMS_P1;PMS_P2;Temp;Humidity;BMP_temperature;BMP_pressure;BME280_temperature;BME280_humidity;BME280_pressure;Samples;Min_cycle;Max_cycle;Signal;HPM_P1;HPM_P2
2023/05/30 00:01:20;;;;;;;13.52;9.18;;;;;;;;;;10108429;28;20073;-62
2023/05/30 00:06:18;;;;;;;12.68;8.35;;;;;;;;;;10103618;28;20455;-61
2023/05/30 00:11:18;;;;;;;21.20;15.05;;;;;;;;;;10105611;28;20078;-62
2023/05/30 00:16:19;;;;;;;18.00;8.80;;;;;;;;;;10103097;28;20086;-62
2023/05/30 00:21:18;;;;;;;11.43;8.88;;;;;;;;;;10102537;28;20074;-63
2023/05/30 00:26:17;;;;;;;15.10;9.45;;;;;;;;;;10104177;28;20090;-61
2023/05/30 00:31:23;;;;;;;14.48;10.25;;;;;;;;;;10103570;28;20082;-63
2023/05/30 00:36:23;;;;;;;10.73;8.70;;;;;;;;;;10104448;28;20067;-62
2023/05/30 00:41:23;;;;;;;10.95;8.15;;;;;;;;;;10099111;28;20066;-62
2023/05/30 00:46:23;;;;;;;9.75;8.25;;;;;;;;;;10100654;28;20081;-63
2023/05/30 00:51:22;;;;;;;9.75;8.07;;;;;;;;;;10102191;28;20059;-62
2023/05/30 00:56:22;;;;;;;14.45;8.07;;;;;;;;;;10099744;28;20066;-63
2023/05/30 01:01:25;;;;;;;14.50;8.77;;;;;;;;;;10100635;28;20074;-63
2023/05/30 01:06:27;;;;;;;12.93;8.55;;;;;;;;;;10103395;28;20086;-62
2023/05/30 01:11:28;;;;;;;9.57;8.10;;;;;;;;;;10102743;28;20073;-62
2023/05/30 01:16:30;;;;;;;9.77;8.77;;;;;;;;;;10100554;28;20505;-63
2023/05/30 01:21:30;;;;;;;11.55;8.95;;;;;;;;;;10097383;28;20544;-63
2023/05/30 01:26:41;;;;;;;12.60;7.95;;;;;;;;;;10098920;28;20093;-63
2023/05/30 01:31:41;;;;;;;15.30;8.23;;;;;;;;;;10097014;28;20465;-63
2023/05/30 01:36:39;;;;;;;13.15;8.18;;;;;;;;;;10097778;28;20082;-63
2023/05/30 01:41:41;;;;;;;8.70;7.85;;;;;;;;;;10099861;28;20090;-63
2023/05/30 01:46:45;;;;;;;8.85;8.00;;;;;;;;;;10095080;28;20097;-63
2023/05/30 01:51:43;;;;;;;;;;;;;;;;;;10111949;28;20077;-63
2023/05/30 01:56:43;;;;;;;11.38;7.55;;;;;;;;;;10099826;28;19953;-63
2023/05/30 02:01:43;;;;;;;14.10;8.10;;;;;;;;;;10094007;28;20688;-63
2023/05/30 02:06:42;;;;;;;13.40;7.55;;;;;;;;;;10101167;28;20091;-63
2023/05/30 02:11:40;;;;;;;9.55;8.02;;;;;;;;;;10092500;28;20074;-64
2023/05/30 02:16:39;;;;;;;10.30;7.40;;;;;;;;;;10097027;28;20074;-63
2023/05/30 02:21:47;;;;;;;9.85;8.75;;;;;;;;;;10113499;28;20089;-63
2023/05/30 02:26:47;;;;;;;13.02;9.32;;;;;;;;;;10094953;28;20082;-63
2023/05/30 02:31:45;;;;;;;14.63;8.85;;;;;;;;;;10095417;28;20070;-63
2023/05/30 02:36:44;;;;;;;11.77;7.60;;;;;;;;;;10099008;28;20070;-64
2023/05/30 02:41:44;;;;;;;17.52;8.57;;;;;;;;;;10097854;28;20096;-63
2023/05/30 02:46:43;;;;;;;8.23;7.28;;;;;;;;;;10095296;28;20074;-64
2023/05/30 02:51:42;;;;;;;11.38;7.60;;;;;;;;;;10100536;28;20075;-63
2023/05/30 02:56:49;;;;;;;11.02;7.47;;;;;;;;;;10091332;28;20086;-63
2023/05/30 03:02:06;;;;;;;14.65;8.27;;;;;;;;;;10092707;28;20094;-64
2023/05/30 03:07:08;;;;;;;13.80;8.15;;;;;;;;;;10092797;28;20082;-62
2023/05/30 03:12:09;;;;;;;14.40;9.60;;;;;;;;;;10098571;28;20077;-62
2023/05/30 03:17:08;;;;;;;11.55;6.95;;;;;;;;;;10097060;28;20074;-63
2023/05/30 03:22:07;;;;;;;11.02;7.53;;;;;;;;;;10093316;28;20082;-62
2023/05/30 03:27:07;;;;;;;13.52;7.85;;;;;;;;;;10104720;28;20093;-62
2023/05/30 03:32:07;;;;;;;10.02;7.30;;;;;;;;;;10100180;28;20560;-62
2023/05/30 03:37:06;;;;;;;10.98;8.00;;;;;;;;;;10101071;28;20050;-62
2023/05/30 03:42:05;;;;;;;14.38;8.95;;;;;;;;;;10099214;28;20055;-63
2023/05/30 03:47:03;;;;;;;14.75;10.00;;;;;;;;;;10117506;28;20078;-62
2023/05/30 03:52:03;;;;;;;13.73;8.10;;;;;;;;;;10098435;28;20047;-63
2023/05/30 03:57:05;;;;;;;20.13;10.10;;;;;;;;;;10099577;28;20083;-63
2023/05/30 04:02:07;;;;;;;;;;;;;;;;;;10105576;28;20488;-62
2023/05/30 04:07:07;;;;;;;12.60;8.23;;;;;;;;;;10099761;28;19977;-64
2023/05/30 04:12:06;;;;;;;16.15;8.60;;;;;;;;;;10105598;28;20086;-64
2023/05/30 04:17:04;;;;;;;11.75;7.82;;;;;;;;;;10098012;28;20078;-64
2023/05/30 04:22:02;;;;;;;11.07;9.68;;;;;;;;;;10103138;28;20070;-63
2023/05/30 04:27:02;;;;;;;13.07;8.10;;;;;;;;;;10098843;28;20097;-63
2023/05/30 04:32:01;;;;;;;9.65;8.70;;;;;;;;;;10097693;28;20066;-63
2023/05/30 04:37:00;;;;;;;9.20;8.13;;;;;;;;;;10098305;28;20062;-63
2023/05/30 04:41:58;;;;;;;19.55;13.70;;;;;;;;;;10093247;28;20688;-62
2023/05/30 04:46:58;;;;;;;20.30;18.50;;;;;;;;;;10108140;28;20142;-63
2023/05/30 04:51:57;;;;;;;13.57;10.85;;;;;;;;;;10094954;28;20465;-62
2023/05/30 04:56:59;;;;;;;18.75;9.73;;;;;;;;;;10091114;28;20066;-64
2023/05/30 05:01:59;;;;;;;10.45;8.27;;;;;;;;;;10109715;28;20066;-63
2023/05/30 05:06:57;;;;;;;11.82;7.78;;;;;;;;;;10097599;28;20094;-63
2023/05/30 05:11:56;;;;;;;9.55;7.20;;;;;;;;;;10098063;28;20149;-63
2023/05/30 05:16:54;;;;;;;13.02;7.72;;;;;;;;;;10106357;28;20067;-62
2023/05/30 05:21:53;;;;;;;14.70;7.93;;;;;;;;;;10103375;28;20474;-63
2023/05/30 05:26:52;;;;;;;19.80;8.13;;;;;;;;;;10101765;28;20074;-62
2023/05/30 05:31:50;;;;;;;9.75;7.25;;;;;;;;;;10100745;28;20081;-62
2023/05/30 05:36:48;;;;;;;10.05;7.20;;;;;;;;;;10098620;28;20078;-63
2023/05/30 05:41:48;;;;;;;10.02;6.80;;;;;;;;;;10100044;28;20081;-62
2023/05/30 05:46:46;;;;;;;11.68;7.20;;;;;;;;;;10100048;28;20074;-63
2023/05/30 05:51:44;;;;;;;11.27;7.22;;;;;;;;;;10101556;28;20074;-62
2023/05/30 05:56:42;;;;;;;16.40;7.45;;;;;;;;;;10101708;28;20058;-62
2023/05/30 06:01:42;;;;;;;13.95;7.53;;;;;;;;;;10092523;28;20086;-63
2023/05/30 06:06:41;;;;;;;21.27;7.97;;;;;;;;;;10091455;28;20071;-63
2023/05/30 06:11:39;;;;;;;14.60;8.18;;;;;;;;;;10095846;28;20077;-63
2023/05/30 06:16:37;;;;;;;12.23;8.25;;;;;;;;;;10094881;28;20066;-63
2023/05/30 06:21:37;;;;;;;7.78;6.90;;;;;;;;;;10094786;28;20071;-63
2023/05/30 06:26:35;;;;;;;10.82;7.68;;;;;;;;;;10096832;28;20086;-63
2023/05/30 06:31:33;;;;;;;11.10;7.90;;;;;;;;;;10097440;28;20082;-64
2023/05/30 06:36:31;;;;;;;10.88;7.95;;;;;;;;;;10094763;28;20067;-64
2023/05/30 06:41:31;;;;;;;10.85;8.05;;;;;;;;;;10096834;28;20070;-64
2023/05/30 06:46:29;;;;;;;13.63;8.30;;;;;;;;;;10095158;28;20081;-65
2023/05/30 06:51:30;;;;;;;9.80;8.23;;;;;;;;;;10091037;28;20089;-63
2023/05/30 06:56:29;;;;;;;10.20;7.57;;;;;;;;;;10093793;28;20536;-62
2023/05/30 07:01:28;;;;;;;7.88;7.13;;;;;;;;;;10102842;28;20066;-62
2023/05/30 07:06:27;;;;;;;8.82;7.68;;;;;;;;;;10103572;28;20509;-62
2023/05/30 07:11:25;;;;;;;13.85;8.18;;;;;;;;;;10102858;28;20087;-63
2023/05/30 07:16:24;;;;;;;9.48;7.72;;;;;;;;;;10101560;28;20070;-63
2023/05/30 07:21:26;;;;;;;11.07;8.00;;;;;;;;;;10104104;28;20071;-63
2023/05/30 07:26:28;;;;;;;11.25;8.73;;;;;;;;;;10103037;28;20468;-64
2023/05/30 07:31:26;;;;;;;8.68;7.88;;;;;;;;;;10101635;28;20576;-63
2023/05/30 07:36:25;;;;;;;11.90;6.82;;;;;;;;;;10103881;28;20062;-63
2023/05/30 07:41:24;;;;;;;8.65;6.45;;;;;;;;;;10101501;28;20066;-63
2023/05/30 07:46:22;;;;;;;8.77;6.32;;;;;;;;;;10102575;28;20079;-64
2023/05/30 07:51:22;;;;;;;7.25;6.50;;;;;;;;;;10102882;28;20536;-63
2023/05/30 07:56:22;;;;;;;8.02;5.70;;;;;;;;;;10101712;28;20070;-64
2023/05/30 08:01:20;;;;;;;8.15;5.88;;;;;;;;;;10102661;28;20070;-63
2023/05/30 08:06:19;;;;;;;6.45;5.63;;;;;;;;;;10099991;28;20074;-64
2023/05/30 08:11:17;;;;;;;6.70;6.00;;;;;;;;;;10101210;28;20082;-63
2023/05/30 08:16:17;;;;;;;9.70;5.32;;;;;;;;;;10100583;28;20093;-64
2023/05/30 08:21:16;;;;;;;10.25;5.95;;;;;;;;;;10100087;28;20074;-63
2023/05/30 08:26:15;;;;;;;7.53;6.47;;;;;;;;;;10099863;28;20079;-63
2023/05/30 08:31:14;;;;;;;9.75;5.07;;;;;;;;;;10101408;28;20081;-64
2023/05/30 08:36:13;;;;;;;14.02;5.55;;;;;;;;;;10099724;28;20083;-63
2023/05/30 08:41:12;;;;;;;24.00;10.98;;;;;;;;;;10099940;28;20093;-63
2023/05/30 08:46:10;;;;;;;7.93;4.53;;;;;;;;;;10099881;28;20465;-64
2023/05/30 08:51:11;;;;;;;10.35;4.85;;;;;;;;;;10099098;28;20066;-64
2023/05/30 08:56:12;;;;;;;9.30;4.63;;;;;;;;;;10099006;28;20070;-64
2023/05/30 09:01:11;;;;;;;5.95;4.40;;;;;;;;;;10100355;28;20070;-63
2023/05/30 09:06:10;;;;;;;7.20;4.50;;;;;;;;;;10098384;28;20066;-64
2023/05/30 09:11:08;;;;;;;5.65;5.05;;;;;;;;;;10098566;28;20556;-64
2023/05/30 09:16:08;;;;;;;6.90;5.15;;;;;;;;;;10097780;28;20070;-63
2023/05/30 09:21:06;;;;;;;7.20;4.95;;;;;;;;;;10096812;28;20093;-63
2023/05/30 09:26:07;;;;;;;9.88;4.90;;;;;;;;;;10098156;28;20520;-63
2023/05/30 09:31:06;;;;;;;6.63;4.68;;;;;;;;;;10098052;28;20083;-63
2023/05/30 09:36:07;;;;;;;8.82;4.80;;;;;;;;;;10098210;28;20070;-63
2023/05/30 09:41:05;;;;;;;8.80;4.30;;;;;;;;;;10096871;28;20074;-63
2023/05/30 09:46:11;;;;;;;10.30;5.20;;;;;;;;;;10370101;27;20398;-64
2023/05/30 09:51:10;;;;;;;6.75;5.00;;;;;;;;;;10346894;28;20056;-64
2023/05/30 09:56:08;;;;;;;6.20;5.50;;;;;;;;;;10350009;28;20044;-65
2023/05/30 10:01:15;;;;;;;6.05;5.22;;;;;;;;;;10348389;28;20505;-64
2023/05/30 10:06:15;;;;;;;8.70;4.57;;;;;;;;;;10348518;28;20079;-64
2023/05/30 10:11:14;;;;;;;8.18;4.90;;;;;;;;;;10346407;28;20086;-63
2023/05/30 10:16:13;;;;;;;9.25;4.65;;;;;;;;;;10347682;28;20086;-64
2023/05/30 10:21:12;;;;;;;9.82;4.70;;;;;;;;;;10347681;28;20071;-64
2023/05/30 10:26:13;;;;;;;7.63;4.75;;;;;;;;;;10347774;28;20075;-64
2023/05/30 10:31:12;;;;;;;12.00;4.63;;;;;;;;;;10346545;28;20068;-64
2023/05/30 10:36:10;;;;;;;6.30;4.85;;;;;;;;;;10338994;28;20040;-64
2023/05/30 10:41:14;;;;;;;12.07;4.57;;;;;;;;;;10346372;28;20079;-65
2023/05/30 10:46:22;;;;;;;7.88;5.15;;;;;;;;;;10347056;28;20074;-64
2023/05/30 10:51:21;;;;;;;7.15;4.75;;;;;;;;;;10344997;28;20067;-64
2023/05/30 10:56:32;;;;;;;9.13;4.72;;;;;;;;;;10325626;28;20068;-64
2023/05/30 11:01:32;;;;;;;7.78;4.50;;;;;;;;;;10317386;28;20072;-62
2023/05/30 11:06:33;;;;;;;7.30;5.15;;;;;;;;;;10318204;28;20064;-63
2023/05/30 11:11:33;;;;;;;11.65;4.45;;;;;;;;;;10318321;28;20079;-63
2023/05/30 11:16:33;;;;;;;5.50;4.50;;;;;;;;;;10318180;28;20064;-64
2023/05/30 11:21:50;;;;;;;7.13;3.88;;;;;;;;;;10317315;28;20102;-64
2023/05/30 11:26:58;;;;;;;6.30;4.47;;;;;;;;;;10316309;28;20079;-63
2023/05/30 11:31:58;;;;;;;4.90;4.40;;;;;;;;;;10317092;28;20071;-63
2023/05/30 11:36:57;;;;;;;7.63;5.15;;;;;;;;;;10316663;28;20102;-63
2023/05/30 11:41:56;;;;;;;12.48;4.70;;;;;;;;;;10317161;28;20090;-63
2023/05/30 11:47:06;;;;;;;11.77;5.00;;;;;;;;;;10315234;28;20067;-63
2023/05/30 11:52:23;;;;;;;7.80;4.70;;;;;;;;;;10317353;28;20450;-63
2023/05/30 11:57:24;;;;;;;13.93;5.88;;;;;;;;;;10316925;28;20072;-63
2023/05/30 12:02:26;;;;;;;9.45;5.15;;;;;;;;;;10316322;28;20083;-63
2023/05/30 12:07:28;;;;;;;5.40;4.15;;;;;;;;;;10313777;28;20075;-63
2023/05/30 12:12:27;;;;;;;9.23;4.70;;;;;;;;;;10315799;28;20076;-63
2023/05/30 12:17:28;;;;;;;6.22;4.15;;;;;;;;;;10316262;28;20068;-63
2023/05/30 12:22:28;;;;;;;7.07;4.30;;;;;;;;;;10315672;28;20064;-63
2023/05/30 12:27:27;;;;;;;10.23;4.88;;;;;;;;;;10313763;28;20094;-63
2023/05/30 12:32:28;;;;;;;5.00;4.38;;;;;;;;;;10313612;28;20068;-63
2023/05/30 12:37:28;;;;;;;8.43;5.55;;;;;;;;;;10313262;28;20604;-63
2023/05/30 12:42:27;;;;;;;6.93;4.75;;;;;;;;;;10313891;28;20076;-63
2023/05/30 12:47:27;;;;;;;10.23;4.35;;;;;;;;;;10314899;28;20999;-63
2023/05/30 12:52:27;;;;;;;8.85;4.88;;;;;;;;;;10314799;28;20513;-63
2023/05/30 12:57:26;;;;;;;8.20;5.20;;;;;;;;;;10314368;28;20072;-64
2023/05/30 13:02:25;;;;;;;7.35;5.40;;;;;;;;;;10312490;28;20076;-64
2023/05/30 13:07:25;;;;;;;9.52;4.65;;;;;;;;;;10311135;28;20047;-64
2023/05/30 13:12:23;;;;;;;8.75;5.10;;;;;;;;;;10311426;28;20161;-63
2023/05/30 13:17:22;;;;;;;6.75;4.72;;;;;;;;;;10313389;28;20517;-63
2023/05/30 13:22:21;;;;;;;5.78;4.47;;;;;;;;;;10313711;28;20501;-63
2023/05/30 13:27:21;;;;;;;6.55;4.97;;;;;;;;;;10313718;28;20089;-64
2023/05/30 13:32:19;;;;;;;8.10;4.35;;;;;;;;;;10312196;28;20127;-64
2023/05/30 13:37:17;;;;;;;5.13;4.43;;;;;;;;;;10311143;28;20079;-64
2023/05/30 13:42:16;;;;;;;12.02;5.20;;;;;;;;;;10312867;28;20079;-64
2023/05/30 13:47:17;;;;;;;9.32;5.47;;;;;;;;;;10313285;28;20075;-63
2023/05/30 13:52:17;;;;;;;7.55;5.25;;;;;;;;;;10313238;28;20087;-63
2023/05/30 13:57:16;;;;;;;8.60;4.97;;;;;;;;;;10313469;28;20095;-63
2023/05/30 14:02:17;;;;;;;10.65;4.90;;;;;;;;;;10312037;28;20057;-64
2023/05/30 14:07:16;;;;;;;7.63;5.72;;;;;;;;;;10297704;28;20083;-63
2023/05/30 14:12:14;;;;;;;6.32;4.80;;;;;;;;;;10292072;28;20072;-63
2023/05/30 14:17:12;;;;;;;4.78;4.35;;;;;;;;;;10300148;28;20072;-64
2023/05/30 14:22:12;;;;;;;7.93;4.38;;;;;;;;;;10300340;28;20478;-64
2023/05/30 14:27:11;;;;;;;6.13;3.92;;;;;;;;;;10307057;28;20075;-63
2023/05/30 14:32:11;;;;;;;13.48;4.53;;;;;;;;;;10308090;28;20937;-64
2023/05/30 14:37:09;;;;;;;4.93;3.80;;;;;;;;;;10312877;28;20071;-64
2023/05/30 14:42:10;;;;;;;5.13;4.03;;;;;;;;;;10308615;28;20077;-64
2023/05/30 14:47:08;;;;;;;6.68;3.97;;;;;;;;;;10307035;28;20132;-63
2023/05/30 14:52:06;;;;;;;9.07;3.40;;;;;;;;;;10308874;28;20513;-63
2023/05/30 14:57:05;;;;;;;8.75;4.55;;;;;;;;;;10305600;28;20068;-64
2023/05/30 15:02:05;;;;;;;6.05;4.40;;;;;;;;;;10307971;28;20098;-64
2023/05/30 15:07:04;;;;;;;5.85;3.83;;;;;;;;;;10308857;28;20091;-62
2023/05/30 15:12:02;;;;;;;8.00;4.93;;;;;;;;;;10306745;28;20098;-62
2023/05/30 15:17:00;;;;;;;5.07;4.57;;;;;;;;;;10305776;28;20071;-62
2023/05/30 15:22:00;;;;;;;5.60;4.78;;;;;;;;;;10301258;28;20466;-62
2023/05/30 15:27:00;;;;;;;12.82;5.20;;;;;;;;;;10300501;28;20288;-63
2023/05/30 15:31:58;;;;;;;12.98;6.00;;;;;;;;;;10299553;28;20067;-63
2023/05/30 15:36:57;;;;;;;11.85;5.78;;;;;;;;;;10290875;28;20068;-63
2023/05/30 15:41:56;;;;;;;6.28;4.70;;;;;;;;;;10311228;28;20083;-63
2023/05/30 15:46:58;;;;;;;6.97;4.72;;;;;;;;;;10308799;28;20119;-63
2023/05/30 15:51:57;;;;;;;8.20;5.07;;;;;;;;;;10306209;28;20518;-64
2023/05/30 15:56:56;;;;;;;9.80;5.57;;;;;;;;;;10300665;28;20521;-64
2023/05/30 16:01:55;;;;;;;14.63;8.63;;;;;;;;;;10301540;28;20064;-64
2023/05/30 16:06:56;;;;;;;6.63;4.63;;;;;;;;;;10298986;28;20072;-63
2023/05/30 16:11:54;;;;;;;11.57;10.40;;;;;;;;;;10308293;28;20068;-64
2023/05/30 16:16:54;;;;;;;9.32;5.35;;;;;;;;;;10301379;28;20076;-64
2023/05/30 16:21:52;;;;;;;9.05;7.63;;;;;;;;;;10300307;28;20075;-64
2023/05/30 16:26:50;;;;;;;10.63;8.68;;;;;;;;;;10302019;28;20087;-64
2023/05/30 16:31:50;;;;;;;6.25;5.65;;;;;;;;;;10305511;28;20506;-65
2023/05/30 16:36:50;;;;;;;8.30;5.53;;;;;;;;;;10296478;28;20076;-63
2023/05/30 16:41:48;;;;;;;7.88;5.05;;;;;;;;;;10296725;28;20084;-64
2023/05/30 16:46:46;;;;;;;15.85;13.98;;;;;;;;;;10296469;28;20079;-63
2023/05/30 16:51:45;;;;;;;14.02;6.70;;;;;;;;;;10300832;28;20067;-64
2023/05/30 16:56:44;;;;;;;5.68;4.85;;;;;;;;;;10308178;28;20064;-64
2023/05/30 17:01:43;;;;;;;5.07;4.57;;;;;;;;;;10295676;28;20064;-64
2023/05/30 17:06:41;;;;;;;12.10;10.02;;;;;;;;;;10301190;28;20428;-64
2023/05/30 17:11:39;;;;;;;11.20;7.57;;;;;;;;;;10303487;28;20071;-64
2023/05/30 17:16:39;;;;;;;13.52;9.77;;;;;;;;;;10296415;28;20068;-64
2023/05/30 17:21:37;;;;;;;16.20;13.13;;;;;;;;;;10302284;28;20494;-65
2023/05/30 17:26:36;;;;;;;9.40;7.72;;;;;;;;;;10295656;28;20134;-64
2023/05/30 17:31:35;;;;;;;15.32;10.75;;;;;;;;;;10302557;28;20068;-64
2023/05/30 17:36:35;;;;;;;12.02;6.63;;;;;;;;;;10302439;28;20075;-65
2023/05/30 17:41:34;;;;;;;11.00;8.52;;;;;;;;;;10302643;28;20076;-64
2023/05/30 17:46:32;;;;;;;11.93;10.50;;;;;;;;;;10305898;28;20088;-64
2023/05/30 17:51:32;;;;;;;13.52;11.15;;;;;;;;;;10309601;28;20072;-64
2023/05/30 17:56:32;;;;;;;15.18;10.23;;;;;;;;;;10302866;28;20675;-64
2023/05/30 18:01:30;;;;;;;12.10;9.10;;;;;;;;;;10300801;28;20068;-64
2023/05/30 18:06:29;;;;;;;15.73;13.23;;;;;;;;;;10303680;28;20076;-64
2023/05/30 18:11:27;;;;;;;13.45;11.77;;;;;;;;;;10310813;28;20087;-65
2023/05/30 18:16:27;;;;;;;12.35;6.85;;;;;;;;;;10308945;28;20301;-63
2023/05/30 18:21:25;;;;;;;6.47;5.38;;;;;;;;;;10313886;28;20080;-64
2023/05/30 18:26:24;;;;;;;12.77;11.60;;;;;;;;;;10317580;28;20166;-64
2023/05/30 18:31:22;;;;;;;11.90;7.70;;;;;;;;;;10308705;28;20064;-64
2023/05/30 18:36:21;;;;;;;7.25;6.65;;;;;;;;;;10311716;28;20071;-65
2023/05/30 18:41:21;;;;;;;13.45;7.45;;;;;;;;;;10309103;28;20096;-64
2023/05/30 18:46:19;;;;;;;6.68;5.18;;;;;;;;;;10311784;28;20080;-64
2023/05/30 18:57:19;;;;;;;7.72;6.28;;;;;;;;;;10222746;28;20069;-64
2023/05/30 19:02:18;;;;;;;10.55;5.50;;;;;;;;;;10217809;28;20746;-64
2023/05/30 19:07:16;;;;;;;8.52;5.22;;;;;;;;;;10214175;28;20073;-64
2023/05/30 19:12:14;;;;;;;8.73;6.03;;;;;;;;;;10220460;28;20100;-63
2023/05/30 19:17:14;;;;;;;9.52;5.95;;;;;;;;;;10221107;28;20089;-64
2023/05/30 19:22:12;;;;;;;10.13;5.65;;;;;;;;;;10200442;28;20566;-64
2023/05/30 19:27:10;;;;;;;7.88;5.95;;;;;;;;;;10272486;28;20685;-63
2023/05/30 19:32:08;;;;;;;6.85;5.75;;;;;;;;;;10312719;28;20275;-63
2023/05/30 19:37:08;;;;;;;8.15;6.40;;;;;;;;;;10315971;28;20088;-64
2023/05/30 19:42:07;;;;;;;10.90;5.50;;;;;;;;;;10311678;28;20517;-64
2023/05/30 19:47:05;;;;;;;10.85;6.20;;;;;;;;;;10310564;28;20090;-64
2023/05/30 19:52:04;;;;;;;15.93;6.88;;;;;;;;;;10312868;28;20076;-63
2023/05/30 19:57:05;;;;;;;10.48;6.07;;;;;;;;;;10312176;28;20068;-63
2023/05/30 20:02:04;;;;;;;10.50;6.18;;;;;;;;;;10313217;28;20107;-63
2023/05/30 20:07:02;;;;;;;7.03;5.80;;;;;;;;;;10316982;28;20079;-63
2023/05/30 20:12:00;;;;;;;8.65;6.15;;;;;;;;;;10315702;28;20064;-63
2023/05/30 20:17:00;;;;;;;14.30;7.10;;;;;;;;;;10314711;28;20071;-63
2023/05/30 20:21:58;;;;;;;11.70;6.63;;;;;;;;;;10314143;28;20067;-62
2023/05/30 20:26:56;;;;;;;6.50;5.90;;;;;;;;;;10309279;28;20072;-62
2023/05/30 20:31:54;;;;;;;8.15;6.22;;;;;;;;;;10312364;28;20174;-63
2023/05/30 20:36:54;;;;;;;11.05;5.20;;;;;;;;;;10311402;28;20071;-63
2023/05/30 20:41:52;;;;;;;6.28;5.63;;;;;;;;;;10313399;28;20071;-63
2023/05/30 20:46:51;;;;;;;6.53;5.82;;;;;;;;;;10313915;28;20067;-64
2023/05/30 20:51:49;;;;;;;6.38;5.78;;;;;;;;;;10312326;28;20068;-62
2023/05/30 20:56:52;;;;;;;8.65;6.18;;;;;;;;;;10314345;28;20068;-63
2023/05/30 21:01:50;;;;;;;12.73;5.18;;;;;;;;;;10313573;28;20076;-63
2023/05/30 21:06:48;;;;;;;7.40;5.80;;;;;;;;;;10314867;28;20511;-63
2023/05/30 21:11:46;;;;;;;6.38;5.57;;;;;;;;;;10315106;28;20063;-63
2023/05/30 21:16:46;;;;;;;7.40;5.25;;;;;;;;;;10313169;28;20072;-63
2023/05/30 21:21:45;;;;;;;6.95;5.68;;;;;;;;;;10314791;28;20076;-63
2023/05/30 21:26:46;;;;;;;11.50;6.57;;;;;;;;;;10314348;28;20071;-63
2023/05/30 21:31:45;;;;;;;6.55;5.55;;;;;;;;;;10314345;28;20067;-63
2023/05/30 21:36:44;;;;;;;7.28;5.05;;;;;;;;;;10314526;28;20068;-63
2023/05/30 21:41:42;;;;;;;6.90;6.13;;;;;;;;;;10300741;28;20568;-63
2023/05/30 21:46:40;;;;;;;8.18;6.25;;;;;;;;;;10312566;28;20086;-63
2023/05/30 21:51:40;;;;;;;6.97;5.25;;;;;;;;;;10309575;28;20072;-62
2023/05/30 21:56:38;;;;;;;7.30;5.50;;;;;;;;;;10311851;28;20045;-63
2023/05/30 22:01:36;;;;;;;8.13;5.93;;;;;;;;;;10310855;28;20068;-63
2023/05/30 22:06:35;;;;;;;8.13;5.45;;;;;;;;;;10313222;28;20193;-63
2023/05/30 22:11:34;;;;;;;7.43;5.68;;;;;;;;;;10312160;28;20076;-63
2023/05/30 22:16:34;;;;;;;6.60;5.00;;;;;;;;;;10312548;28;20182;-63
2023/05/30 22:21:32;;;;;;;6.68;4.88;;;;;;;;;;10310679;28;20068;-63
2023/05/30 22:26:31;;;;;;;8.65;5.10;;;;;;;;;;10313000;28;20076;-64
2023/05/30 22:31:31;;;;;;;6.90;5.05;;;;;;;;;;10313020;28;20041;-63
2023/05/30 22:36:29;;;;;;;6.45;4.93;;;;;;;;;;10312748;28;20063;-63
2023/05/30 22:41:27;;;;;;;5.35;4.35;;;;;;;;;;10312675;28;20073;-63
2023/05/30 22:46:26;;;;;;;6.68;4.95;;;;;;;;;;10312666;28;20489;-63
2023/05/30 22:51:25;;;;;;;5.78;4.82;;;;;;;;;;10302028;28;20075;-64
2023/05/30 22:56:24;;;;;;;7.13;5.40;;;;;;;;;;10318134;28;20082;-63
2023/05/30 23:01:22;;;;;;;6.18;4.90;;;;;;;;;;10316700;28;20072;-63
2023/05/30 23:06:20;;;;;;;5.80;5.13;;;;;;;;;;10318602;28;20087;-63
2023/05/30 23:11:20;;;;;;;6.70;4.95;;;;;;;;;;10319731;28;20451;-63
2023/05/30 23:16:18;;;;;;;7.40;6.25;;;;;;;;;;10319210;28;20598;-63
2023/05/30 23:21:16;;;;;;;6.85;5.40;;;;;;;;;;10318893;28;20072;-63
2023/05/30 23:26:15;;;;;;;7.85;5.78;;;;;;;;;;10317995;28;20065;-63
2023/05/30 23:31:14;;;;;;;7.07;4.88;;;;;;;;;;10317916;28;20083;-64
2023/05/30 23:36:12;;;;;;;7.25;4.57;;;;;;;;;;10318433;28;20131;-63
2023/05/30 23:41:11;;;;;;;8.90;5.38;;;;;;;;;;10317766;28;20102;-64
2023/05/30 23:46:10;;;;;;;6.55;4.88;;;;;;;;;;10315695;28;20083;-63
2023/05/30 23:51:10;;;;;;;8.43;5.75;;;;;;;;;;10316243;28;20072;-64
2023/05/30 23:56:08;;;;;;;8.13;5.20;;;;;;;;;;10316466;28;20079;-63
